Time;durP1;ratioP1;P1;durP2;ratioP2;P2;SDS_P1;SDS_P2;PMS_P1;PMS_P2;Temp;Humidity;BMP_temperature;BMP_pressure;BME280_temperature;BME280_humidity;BME280_pressure;Samples;Min_cycle;Max_cycle;Signal;HPM_P1;HPM_P2
2022/01/03 00:02:19;;;;;;;;;13.50;12.50;;;;;;;;5001720;28;9517;-78
2022/01/03 00:04:45;;;;;;;;;14.25;9.75;;;;;;;;5001854;28;12694;-78
2022/01/03 00:07:11;;;;;;;;;14.75;10.75;;;;;;;;5001428;28;21901;-77
2022/01/03 00:09:36;;;;;;;;;14.00;13.00;;;;;;;;4999705;28;23542;-77
2022/01/03 00:12:02;;;;;;;;;16.25;10.25;;;;;;;;5001604;28;10589;-77
2022/01/03 00:14:28;;;;;;;;;11.75;9.25;;;;;;;;5001423;28;11569;-78
2022/01/03 00:16:54;;;;;;;;;10.00;9.75;;;;;;;;5001683;28;21897;-78
2022/01/03 00:19:19;;;;;;;;;9.25;9.25;;;;;;;;5001922;28;11586;-79
2022/01/03 00:21:45;;;;;;;;;13.75;12.50;;;;;;;;5001721;28;21506;-79
2022/01/03 00:24:11;;;;;;;;;14.25;12.50;;;;;;;;4999702;28;24922;-78
2022/01/03 00:26:37;;;;;;;;;13.50;13.00;;;;;;;;5001767;28;8839;-78
2022/01/03 00:29:19;;;;;;;;;14.00;10.50;;;;;;;;5001381;28;11623;-78
2022/01/03 00:31:45;;;;;;;;;14.00;13.00;;;;;;;;5001950;28;11606;-77
2022/01/03 00:34:11;;;;;;;;;13.50;13.50;;;;;;;;5001259;28;11549;-78
2022/01/03 00:36:37;;;;;;;;;12.50;11.50;;;;;;;;5001093;28;11596;-79
2022/01/03 00:39:04;;;;;;;;;10.50;10.25;;;;;;;;4999949;28;11563;-79
2022/01/03 00:41:29;;;;;;;;;10.00;9.00;;;;;;;;5001859;28;11494;-79
2022/01/03 00:43:54;;;;;;;;;10.00;9.00;;;;;;;;5001447;28;21473;-78
2022/01/03 00:46:20;;;;;;;;;15.00;10.50;;;;;;;;5001520;28;8832;-78
2022/01/03 00:48:46;;;;;;;;;8.00;6.75;;;;;;;;5000908;28;23318;-78
2022/01/03 00:51:19;;;;;;;;;13.50;8.00;;;;;;;;5001086;28;22180;-78
2022/01/03 00:53:46;;;;;;;;;10.00;9.00;;;;;;;;5001532;28;21782;-79
2022/01/03 00:56:18;;;;;;;;;6.50;5.00;;;;;;;;5001747;28;11528;-78
2022/01/03 00:58:52;;;;;;;;;8.00;7.00;;;;;;;;5002276;28;21934;-79
2022/01/03 01:01:18;;;;;;;;;13.00;10.00;;;;;;;;5001179;28;12510;-78
2022/01/03 01:03:47;;;;;;;;;11.50;10.00;;;;;;;;5001226;28;22325;-78
2022/01/03 01:06:13;;;;;;;;;9.75;7.50;;;;;;;;5001219;28;11585;-78
2022/01/03 01:08:38;;;;;;;;;15.50;10.50;;;;;;;;4999602;28;25611;-78
2022/01/03 01:11:05;;;;;;;;;10.00;9.00;;;;;;;;5000744;28;22427;-78
2022/01/03 01:13:30;;;;;;;;;11.00;10.00;;;;;;;;5000928;28;21756;-78
2022/01/03 01:15:56;;;;;;;;;11.00;10.00;;;;;;;;4999863;28;22905;-78
2022/01/03 01:18:24;;;;;;;;;12.50;8.50;;;;;;;;5000968;28;8812;-78
2022/01/03 01:20:50;;;;;;;;;8.50;8.00;;;;;;;;5001318;28;21472;-79
2022/01/03 01:23:16;;;;;;;;;10.00;10.00;;;;;;;;5000900;28;21822;-79
2022/01/03 01:28:07;;;;;;;;;11.00;10.25;;;;;;;;5000115;28;21305;-79
2022/01/03 01:30:33;;;;;;;;;13.25;10.00;;;;;;;;5000071;28;24204;-79
2022/01/03 01:33:04;;;;;;;;;10.50;8.50;;;;;;;;5000644;28;11916;-79
2022/01/03 01:35:35;;;;;;;;;7.50;7.50;;;;;;;;5000512;28;21777;-78
2022/01/03 01:38:01;;;;;;;;;10.25;9.00;;;;;;;;5001054;28;21428;-78
2022/01/03 01:40:27;;;;;;;;;11.00;10.50;;;;;;;;4999202;28;22616;-77
2022/01/03 01:42:54;;;;;;;;;15.00;11.00;;;;;;;;4998027;28;21699;-75
2022/01/03 01:45:21;;;;;;;;;14.50;10.00;;;;;;;;5000275;28;11456;-76
2022/01/03 01:47:47;;;;;;;;;12.75;9.50;;;;;;;;5000364;28;12414;-76
2022/01/03 01:50:14;;;;;;;;;11.00;9.00;;;;;;;;5000482;28;22016;-76
2022/01/03 01:52:39;;;;;;;;;10.00;9.75;;;;;;;;5000762;28;11498;-75
2022/01/03 01:55:07;;;;;;;;;13.00;9.00;;;;;;;;5000571;28;11713;-76
2022/01/03 01:57:51;;;;;;;;;10.00;9.00;;;;;;;;5001801;28;11189;-77
2022/01/03 02:00:16;;;;;;;;;11.25;9.50;;;;;;;;5001150;28;11507;-76
2022/01/03 02:02:46;;;;;;;;;9.00;6.50;;;;;;;;5000459;28;11554;-76
2022/01/03 02:05:18;;;;;;;;;10.50;8.00;;;;;;;;4999840;28;21623;-77
2022/01/03 02:07:44;;;;;;;;;10.25;9.25;;;;;;;;5000651;28;23115;-77
2022/01/03 02:10:10;;;;;;;;;11.50;11.00;;;;;;;;5000399;28;11488;-77
2022/01/03 02:12:37;;;;;;;;;12.50;9.50;;;;;;;;4999758;28;21761;-77
2022/01/03 02:15:03;;;;;;;;;8.75;6.25;;;;;;;;4999906;28;21481;-77
2022/01/03 02:17:28;;;;;;;;;10.25;8.50;;;;;;;;4998622;28;24725;-77
2022/01/03 02:20:08;;;;;;;;;10.25;8.50;;;;;;;;5000217;28;21372;-77
2022/01/03 02:22:33;;;;;;;;;13.75;8.50;;;;;;;;5001050;28;8781;-77
2022/01/03 02:24:58;;;;;;;;;4.75;2.00;;;;;;;;5000503;28;11521;-78
2022/01/03 02:27:24;;;;;;;;;8.50;8.00;;;;;;;;5000169;28;22502;-78
2022/01/03 02:29:49;;;;;;;;;9.00;6.25;;;;;;;;5000069;28;10401;-77
2022/01/03 02:32:14;;;;;;;;;11.25;8.00;;;;;;;;5000643;28;11545;-77
2022/01/03 02:34:41;;;;;;;;;12.00;7.00;;;;;;;;5001860;28;21562;-76
2022/01/03 02:37:06;;;;;;;;;10.50;7.50;;;;;;;;5009136;28;10373;-78
2022/01/03 02:39:31;;;;;;;;;6.50;6.00;;;;;;;;5004775;28;11501;-76
2022/01/03 02:41:57;;;;;;;;;11.00;9.00;;;;;;;;4999390;28;21453;-76
2022/01/03 02:44:23;;;;;;;;;9.75;7.00;;;;;;;;4998764;28;21471;-75
2022/01/03 02:46:48;;;;;;;;;7.75;6.00;;;;;;;;4999294;28;21597;-76
2022/01/03 02:49:14;;;;;;;;;4.25;4.25;;;;;;;;4999710;28;12340;-76
2022/01/03 02:51:42;;;;;;;;;3.25;2.50;;;;;;;;4997746;28;11649;-77
2022/01/03 02:54:07;;;;;;;;;6.00;6.00;;;;;;;;4999381;28;11588;-77
2022/01/03 02:56:33;;;;;;;;;8.00;7.25;;;;;;;;4999615;28;11541;-78
2022/01/03 02:58:59;;;;;;;;;6.50;6.50;;;;;;;;4999091;28;11541;-78
2022/01/03 03:01:24;;;;;;;;;10.00;6.25;;;;;;;;4999577;28;11363;-78
2022/01/03 03:03:50;;;;;;;;;7.75;5.25;;;;;;;;4997278;28;23890;-78
2022/01/03 03:06:16;;;;;;;;;13.50;10.50;;;;;;;;4997032;28;21799;-77
2022/01/03 03:08:41;;;;;;;;;10.00;7.50;;;;;;;;4998473;28;22823;-77
2022/01/03 03:11:07;;;;;;;;;9.75;9.00;;;;;;;;4998347;28;21813;-77
2022/01/03 03:13:32;;;;;;;;;9.50;7.25;;;;;;;;4998344;28;23135;-77
2022/01/03 03:15:58;;;;;;;;;9.00;9.00;;;;;;;;4999303;28;10940;-77
2022/01/03 03:18:24;;;;;;;;;13.00;12.00;;;;;;;;4999068;28;10352;-77
2022/01/03 03:20:49;;;;;;;;;10.50;9.00;;;;;;;;4998498;28;23452;-77
2022/01/03 03:23:15;;;;;;;;;12.75;10.75;;;;;;;;4998934;28;21589;-77
2022/01/03 03:25:40;;;;;;;;;9.00;9.00;;;;;;;;5001941;28;21705;-77
2022/01/03 03:28:07;;;;;;;;;13.75;12.00;;;;;;;;5001868;28;23634;-77
2022/01/03 03:30:40;;;;;;;;;10.50;9.25;;;;;;;;5002126;28;22916;-78
2022/01/03 03:33:11;;;;;;;;;10.00;9.50;;;;;;;;5001867;28;22816;-78
2022/01/03 03:35:37;;;;;;;;;11.25;8.75;;;;;;;;5001588;28;11528;-78
2022/01/03 03:38:03;;;;;;;;;9.00;9.00;;;;;;;;5002672;28;11518;-79
2022/01/03 03:40:28;;;;;;;;;7.50;7.50;;;;;;;;5002592;28;21428;-78
2022/01/03 03:42:53;;;;;;;;;12.50;10.00;;;;;;;;5000907;28;11989;-79
2022/01/03 03:45:19;;;;;;;;;8.50;7.75;;;;;;;;5001917;28;23306;-77
2022/01/03 03:47:44;;;;;;;;;11.50;9.25;;;;;;;;5001705;28;23566;-78
2022/01/03 03:50:10;;;;;;;;;14.00;9.00;;;;;;;;5002090;28;21398;-75
2022/01/03 03:52:35;;;;;;;;;8.75;8.75;;;;;;;;5001323;28;10768;-77
2022/01/03 03:55:00;;;;;;;;;7.75;6.00;;;;;;;;5001847;28;21560;-77
2022/01/03 03:57:26;;;;;;;;;14.00;11.25;;;;;;;;5001935;28;11540;-77
2022/01/03 03:59:51;;;;;;;;;10.25;8.25;;;;;;;;4999703;28;22605;-77
2022/01/03 04:02:17;;;;;;;;;9.25;7.50;;;;;;;;5001784;28;22877;-77
2022/01/03 04:04:42;;;;;;;;;8.00;8.00;;;;;;;;5002010;28;21342;-77
2022/01/03 04:07:07;;;;;;;;;13.75;8.25;;;;;;;;5002070;28;11296;-77
2022/01/03 04:09:33;;;;;;;;;10.75;10.50;;;;;;;;5001820;28;21364;-77
2022/01/03 04:11:58;;;;;;;;;9.50;9.00;;;;;;;;5001992;28;21863;-77
2022/01/03 04:14:23;;;;;;;;;8.00;7.75;;;;;;;;5001723;28;22690;-77
2022/01/03 04:16:49;;;;;;;;;15.75;10.50;;;;;;;;5002154;28;11547;-77
2022/01/03 04:19:14;;;;;;;;;11.50;9.75;;;;;;;;5001808;28;23366;-77
2022/01/03 04:21:39;;;;;;;;;9.50;8.25;;;;;;;;5001487;28;22647;-76
2022/01/03 04:24:07;;;;;;;;;13.75;9.50;;;;;;;;4999972;28;21734;-78
2022/01/03 04:26:32;;;;;;;;;10.50;8.75;;;;;;;;5001273;28;22127;-75
2022/01/03 04:28:58;;;;;;;;;9.25;9.25;;;;;;;;5001799;28;11653;-75
2022/01/03 04:31:23;;;;;;;;;12.50;10.00;;;;;;;;5000891;28;21682;-76
2022/01/03 04:33:48;;;;;;;;;14.50;10.00;;;;;;;;4999324;28;22938;-76
2022/01/03 04:36:14;;;;;;;;;11.75;9.00;;;;;;;;5000956;28;8808;-75
2022/01/03 04:38:39;;;;;;;;;10.00;9.00;;;;;;;;5000738;28;21641;-76
2022/01/03 04:41:05;;;;;;;;;12.00;8.50;;;;;;;;5001745;28;9048;-75
2022/01/03 04:43:30;;;;;;;;;8.75;8.75;;;;;;;;5001504;28;11694;-76
2022/01/03 04:45:56;;;;;;;;;10.50;9.50;;;;;;;;5000271;28;21381;-75
2022/01/03 04:48:22;;;;;;;;;10.00;9.00;;;;;;;;5000136;28;22619;-75
2022/01/03 04:50:47;;;;;;;;;9.00;4.50;;;;;;;;5001152;28;8804;-76
2022/01/03 04:53:12;;;;;;;;;8.25;7.50;;;;;;;;5000803;28;21303;-75
2022/01/03 04:55:38;;;;;;;;;10.00;9.00;;;;;;;;4999352;28;13501;-75
2022/01/03 04:58:03;;;;;;;;;10.00;9.00;;;;;;;;5000450;28;22580;-75
2022/01/03 05:00:28;;;;;;;;;9.50;8.25;;;;;;;;5001156;28;8796;-76
2022/01/03 05:02:54;;;;;;;;;9.75;9.25;;;;;;;;5000120;28;21345;-74
2022/01/03 05:05:19;;;;;;;;;12.00;9.00;;;;;;;;5000181;28;9939;-76
2022/01/03 05:07:46;;;;;;;;;9.75;9.75;;;;;;;;5000849;28;21362;-77
2022/01/03 05:10:11;;;;;;;;;10.75;8.75;;;;;;;;5000718;28;21738;-77
2022/01/03 05:12:37;;;;;;;;;20.75;13.25;;;;;;;;5000414;28;21626;-77
2022/01/03 05:15:02;;;;;;;;;10.75;7.75;;;;;;;;5001106;28;24493;-77
2022/01/03 05:17:29;;;;;;;;;11.75;11.75;;;;;;;;5000643;28;22650;-77
2022/01/03 05:19:54;;;;;;;;;9.50;9.00;;;;;;;;4998727;28;22152;-77
2022/01/03 05:22:19;;;;;;;;;9.25;9.25;;;;;;;;4999832;28;22256;-75
2022/01/03 05:24:45;;;;;;;;;10.00;10.00;;;;;;;;5000133;28;9619;-75
2022/01/03 05:27:10;;;;;;;;;9.75;8.00;;;;;;;;5000003;28;22706;-75
2022/01/03 05:29:35;;;;;;;;;13.25;9.00;;;;;;;;4999636;28;22323;-76
2022/01/03 05:32:01;;;;;;;;;11.75;10.00;;;;;;;;5000283;28;21465;-75
2022/01/03 05:34:26;;;;;;;;;10.00;10.00;;;;;;;;4998385;28;22021;-75
2022/01/03 05:36:51;;;;;;;;;13.00;12.00;;;;;;;;5000669;28;8850;-77
2022/01/03 05:39:17;;;;;;;;;13.00;10.00;;;;;;;;5000918;28;8820;-75
2022/01/03 05:41:42;;;;;;;;;11.75;10.00;;;;;;;;5000829;28;8792;-76
2022/01/03 05:44:08;;;;;;;;;11.25;10.00;;;;;;;;5000763;28;10175;-77
2022/01/03 05:46:34;;;;;;;;;14.00;10.25;;;;;;;;4999719;28;8831;-77
2022/01/03 05:48:59;;;;;;;;;13.50;13.25;;;;;;;;5000355;28;11533;-77
2022/01/03 05:51:24;;;;;;;;;10.50;9.75;;;;;;;;5000179;28;10397;-76
2022/01/03 05:53:50;;;;;;;;;13.75;10.00;;;;;;;;4999637;28;21783;-77
2022/01/03 05:56:15;;;;;;;;;11.50;10.75;;;;;;;;4999984;28;21674;-77
2022/01/03 05:58:40;;;;;;;;;17.00;11.25;;;;;;;;5000155;28;11400;-77
2022/01/03 06:01:06;;;;;;;;;13.00;11.50;;;;;;;;4998794;28;12558;-76
2022/01/03 06:03:38;;;;;;;;;13.00;10.50;;;;;;;;5000513;28;11802;-77
2022/01/03 06:06:17;;;;;;;;;12.75;12.00;;;;;;;;5000061;28;8812;-78
2022/01/03 06:08:42;;;;;;;;;19.50;16.50;;;;;;;;5000628;28;11959;-79
2022/01/03 06:11:07;;;;;;;;;16.00;13.00;;;;;;;;4999941;28;11703;-79
2022/01/03 06:13:33;;;;;;;;;15.00;14.00;;;;;;;;5000042;28;11377;-77
2022/01/03 06:15:58;;;;;;;;;14.00;14.00;;;;;;;;4999830;28;8815;-77
2022/01/03 06:18:24;;;;;;;;;14.00;11.25;;;;;;;;4998124;28;9547;-77
2022/01/03 06:20:51;;;;;;;;;10.75;9.75;;;;;;;;4999466;28;9342;-77
2022/01/03 06:23:17;;;;;;;;;14.50;13.50;;;;;;;;4999259;28;21961;-78
2022/01/03 06:25:42;;;;;;;;;10.00;10.00;;;;;;;;4998461;28;21756;-77
2022/01/03 06:28:09;;;;;;;;;8.00;7.50;;;;;;;;4998800;28;11549;-72
2022/01/03 06:30:35;;;;;;;;;17.50;14.75;;;;;;;;4998465;28;22262;-72
2022/01/03 06:33:00;;;;;;;;;13.00;13.00;;;;;;;;4998644;28;22388;-71
2022/01/03 06:35:25;;;;;;;;;16.50;12.00;;;;;;;;4998581;28;11680;-70
2022/01/03 06:37:50;;;;;;;;;14.50;12.25;;;;;;;;4998499;28;10718;-69
2022/01/03 06:40:16;;;;;;;;;13.25;12.00;;;;;;;;4998646;28;11591;-71
2022/01/03 08:43:02;;;;;;;;;12.75;12.75;;;;;;;;5173085;27;78885;-71
2022/01/03 08:45:27;;;;;;;;;18.50;12.00;;;;;;;;5155576;27;22211;-72
2022/01/03 08:47:52;;;;;;;;;15.25;13.25;;;;;;;;5157769;27;11670;-72
2022/01/03 08:50:18;;;;;;;;;19.00;17.00;;;;;;;;5157619;27;11423;-73
2022/01/03 08:52:44;;;;;;;;;13.75;13.75;;;;;;;;5157058;27;11968;-73
2022/01/03 08:55:09;;;;;;;;;13.25;9.25;;;;;;;;5157476;27;11851;-79
2022/01/03 08:57:34;;;;;;;;;13.75;11.75;;;;;;;;5156095;27;23265;-77
2022/01/03 09:00:00;;;;;;;;;13.00;12.00;;;;;;;;5143123;27;21766;-75
2022/01/03 09:02:25;;;;;;;;;11.00;10.50;;;;;;;;5146200;27;11025;-74
2022/01/03 09:04:50;;;;;;;;;13.00;11.25;;;;;;;;5144915;27;11842;-75
2022/01/03 09:07:15;;;;;;;;;10.00;10.00;;;;;;;;5145796;27;11339;-72
2022/01/03 09:09:41;;;;;;;;;13.75;11.25;;;;;;;;5136765;27;11365;-73
2022/01/03 09:12:07;;;;;;;;;12.75;11.25;;;;;;;;5146367;27;11360;-73
2022/01/03 09:14:33;;;;;;;;;15.50;15.00;;;;;;;;5143225;27;8806;-73
2022/01/03 09:16:58;;;;;;;;;9.25;8.50;;;;;;;;5144643;27;11873;-72
2022/01/03 09:19:23;;;;;;;;;10.50;9.50;;;;;;;;5145531;27;22372;-72
2022/01/03 09:21:49;;;;;;;;;14.50;10.25;;;;;;;;5144336;27;21816;-72
2022/01/03 09:24:27;;;;;;;;;16.50;14.00;;;;;;;;5144075;27;22623;-72
2022/01/03 09:29:36;;;;;;;;;11.75;8.75;;;;;;;;5143445;27;11570;-74
2022/01/03 09:32:02;;;;;;;;;18.50;13.00;;;;;;;;5142374;27;22031;-70
2022/01/03 09:34:27;;;;;;;;;16.25;11.50;;;;;;;;5135899;27;21503;-73
2022/01/03 09:36:53;;;;;;;;;17.75;15.50;;;;;;;;5151078;27;11760;-73
2022/01/03 09:39:18;;;;;;;;;23.00;19.50;;;;;;;;5156440;27;9535;-70
2022/01/03 09:41:47;;;;;;;;;21.25;14.75;;;;;;;;5152749;27;12947;-70
2022/01/03 09:44:12;;;;;;;;;14.75;14.00;;;;;;;;5156030;27;11893;-70
2022/01/03 09:46:39;;;;;;;;;17.50;15.00;;;;;;;;5155867;27;13199;-72
2022/01/03 09:49:09;;;;;;;;;16.75;12.50;;;;;;;;5156919;27;11118;-69
2022/01/03 09:51:35;;;;;;;;;16.25;14.00;;;;;;;;5152853;27;11654;-71
2022/01/03 09:54:03;;;;;;;;;15.25;13.75;;;;;;;;5127271;27;11612;-70
2022/01/03 09:56:29;;;;;;;;;13.00;10.75;;;;;;;;5142334;27;11492;-71
2022/01/03 09:58:55;;;;;;;;;13.00;13.00;;;;;;;;5133919;27;11608;-72
2022/01/03 10:01:20;;;;;;;;;12.25;10.75;;;;;;;;5122264;27;11550;-71
2022/01/03 10:03:48;;;;;;;;;13.25;11.25;;;;;;;;5121411;27;11833;-76
2022/01/03 10:06:15;;;;;;;;;8.25;8.25;;;;;;;;5122538;27;10400;-75
2022/01/03 10:08:41;;;;;;;;;13.00;11.00;;;;;;;;5125839;27;22568;-74
2022/01/03 10:11:06;;;;;;;;;15.75;13.50;;;;;;;;5141301;27;22699;-75
2022/01/03 10:13:32;;;;;;;;;14.50;14.50;;;;;;;;5141928;27;11423;-75
2022/01/03 10:15:57;;;;;;;;;20.00;14.75;;;;;;;;5141976;27;10815;-74
2022/01/03 10:18:23;;;;;;;;;15.00;11.75;;;;;;;;5130905;27;13396;-75
2022/01/03 10:20:48;;;;;;;;;14.50;13.50;;;;;;;;5130841;27;10608;-76
2022/01/03 10:23:15;;;;;;;;;5.75;3.00;;;;;;;;5129824;27;11524;-75
2022/01/03 10:25:41;;;;;;;;;12.50;11.00;;;;;;;;5128612;27;22545;-76
2022/01/03 10:28:06;;;;;;;;;13.25;10.50;;;;;;;;5131116;27;22413;-81
2022/01/03 10:30:43;;;;;;;;;15.50;14.75;;;;;;;;5129645;27;11373;-76
2022/01/03 10:33:12;;;;;;;;;13.75;10.00;;;;;;;;5128158;27;11962;-78
2022/01/03 10:35:39;;;;;;;;;12.25;12.25;;;;;;;;5132116;27;12521;-76
2022/01/03 10:38:05;;;;;;;;;14.00;13.00;;;;;;;;5128952;27;11667;-80
2022/01/03 10:40:31;;;;;;;;;14.25;11.00;;;;;;;;5128851;27;12462;-73
2022/01/03 10:43:16;;;;;;;;;14.50;13.75;;;;;;;;5129538;27;9777;-77
2022/01/03 10:45:42;;;;;;;;;10.75;10.75;;;;;;;;5132831;27;12355;-75
2022/01/03 10:48:26;;;;;;;;;14.75;11.00;;;;;;;;5141234;27;11547;-74
2022/01/03 10:50:52;;;;;;;;;10.50;10.00;;;;;;;;5135536;27;11598;-73
2022/01/03 10:53:30;;;;;;;;;14.75;11.50;;;;;;;;5130844;27;11600;-72
2022/01/03 10:55:55;;;;;;;;;24.25;16.50;;;;;;;;5130300;27;13025;-72
2022/01/03 10:58:30;;;;;;;;;18.50;14.50;;;;;;;;5130518;27;11864;-74
2022/01/03 11:00:56;;;;;;;;;11.75;11.00;;;;;;;;5136862;27;12482;-75
2022/01/03 11:06:01;;;;;;;;;9.00;7.00;;;;;;;;5140237;27;11341;-73
2022/01/03 11:11:12;;;;;;;;;13.75;10.00;;;;;;;;5136433;27;21377;-79
2022/01/03 11:13:39;;;;;;;;;11.00;10.00;;;;;;;;5130324;27;22450;-77
2022/01/03 11:16:05;;;;;;;;;12.50;12.50;;;;;;;;5131741;27;12509;-76
2022/01/03 11:18:31;;;;;;;;;11.00;9.25;;;;;;;;5129340;27;11515;-76
2022/01/03 11:21:03;;;;;;;;;13.00;9.75;;;;;;;;5130299;27;21469;-77
2022/01/03 11:23:28;;;;;;;;;12.00;10.00;;;;;;;;5137081;27;11461;-77
2022/01/03 11:25:54;;;;;;;;;13.00;11.00;;;;;;;;5140196;27;21655;-80
2022/01/03 11:28:25;;;;;;;;;13.25;12.50;;;;;;;;5141794;27;8796;-77
2022/01/03 11:30:52;;;;;;;;;18.00;16.50;;;;;;;;5139306;27;12709;-78
2022/01/03 11:33:18;;;;;;;;;15.00;14.00;;;;;;;;5140879;27;11646;-77
2022/01/03 11:35:48;;;;;;;;;13.50;12.00;;;;;;;;5140030;27;12605;-78
2022/01/03 11:38:14;;;;;;;;;14.50;12.25;;;;;;;;5139191;27;12616;-79
2022/01/03 11:40:40;;;;;;;;;19.00;13.50;;;;;;;;5132695;27;13871;-77
2022/01/03 11:43:06;;;;;;;;;12.50;9.25;;;;;;;;5119862;27;11561;-77
2022/01/03 11:45:32;;;;;;;;;13.25;10.25;;;;;;;;5138169;27;21427;-78
2022/01/03 11:47:58;;;;;;;;;14.00;12.75;;;;;;;;5138965;27;22351;-76
2022/01/03 11:50:23;;;;;;;;;9.50;9.50;;;;;;;;5140965;27;11065;-80
2022/01/03 11:52:49;;;;;;;;;10.00;9.00;;;;;;;;5141175;27;22450;-79
2022/01/03 11:55:15;;;;;;;;;9.75;8.50;;;;;;;;5140627;27;22463;-72
2022/01/03 11:57:57;;;;;;;;;13.25;9.00;;;;;;;;5133878;27;21306;-73
2022/01/03 12:05:53;;;;;;;;;12.75;11.25;;;;;;;;5116979;28;23153;-76
2022/01/03 12:08:25;;;;;;;;;15.50;15.50;;;;;;;;5119859;27;22216;-78
2022/01/03 12:10:52;;;;;;;;;36.00;32.75;;;;;;;;5119342;27;11442;-76
2022/01/03 12:13:20;;;;;;;;;27.75;26.50;;;;;;;;5119803;27;13470;-74
2022/01/03 12:15:45;;;;;;;;;12.00;11.50;;;;;;;;5129681;27;13555;-77
2022/01/03 12:18:26;;;;;;;;;22.00;15.00;;;;;;;;5138656;27;12389;-77
2022/01/03 12:20:51;;;;;;;;;14.25;14.25;;;;;;;;5137918;27;14493;-76
2022/01/03 12:23:36;;;;;;;;;14.50;12.00;;;;;;;;5133056;27;13363;-75
2022/01/03 12:26:10;;;;;;;;;16.00;15.00;;;;;;;;5122079;27;12787;-79
2022/01/03 12:28:54;;;;;;;;;14.00;14.00;;;;;;;;5120094;27;12326;-75
2022/01/03 12:31:19;;;;;;;;;14.00;12.00;;;;;;;;5119817;27;11467;-76
2022/01/03 12:34:04;;;;;;;;;16.25;14.50;;;;;;;;5119062;27;11522;-76
2022/01/03 12:36:29;;;;;;;;;14.50;12.00;;;;;;;;5119868;28;11468;-77
2022/01/03 12:39:05;;;;;;;;;12.50;12.00;;;;;;;;5120080;27;11506;-75
2022/01/03 12:41:37;;;;;;;;;12.25;12.25;;;;;;;;5138323;27;8884;-74
2022/01/03 12:44:03;;;;;;;;;20.50;17.00;;;;;;;;5134674;27;12443;-78
2022/01/03 12:46:28;;;;;;;;;17.25;17.00;;;;;;;;5127304;27;14365;-74
2022/01/03 12:48:55;;;;;;;;;19.25;16.50;;;;;;;;5139722;27;10389;-74
2022/01/03 12:51:21;;;;;;;;;18.75;15.75;;;;;;;;5139044;27;12151;-75
2022/01/03 12:53:49;;;;;;;;;19.00;18.00;;;;;;;;5140002;27;12638;-78
2022/01/03 12:56:19;;;;;;;;;19.00;18.50;;;;;;;;5139710;27;11504;-82
2022/01/03 12:58:44;;;;;;;;;20.25;18.75;;;;;;;;5139870;27;11485;-84
2022/01/03 13:01:13;;;;;;;;;15.25;15.25;;;;;;;;5139443;27;13742;-80
2022/01/03 13:03:39;;;;;;;;;18.25;17.75;;;;;;;;5140428;27;12324;-82
2022/01/03 13:06:07;;;;;;;;;24.25;19.75;;;;;;;;5140059;27;11496;-82
2022/01/03 13:08:32;;;;;;;;;48.50;32.75;;;;;;;;5132663;27;11083;-80
2022/01/03 13:10:59;;;;;;;;;42.00;27.00;;;;;;;;5130761;27;12220;-80
2022/01/03 13:13:27;;;;;;;;;27.25;23.50;;;;;;;;5127620;27;12865;-80
2022/01/03 13:15:52;;;;;;;;;27.00;20.25;;;;;;;;5129817;27;13474;-80
2022/01/03 13:18:17;;;;;;;;;19.50;17.25;;;;;;;;5128976;27;11517;-80
2022/01/03 13:20:53;;;;;;;;;20.25;19.00;;;;;;;;5127478;27;12695;-80
2022/01/03 13:23:19;;;;;;;;;16.75;16.00;;;;;;;;5129755;27;14008;-80
2022/01/03 13:25:44;;;;;;;;;18.50;18.00;;;;;;;;5127860;27;11567;-80
2022/01/03 13:28:12;;;;;;;;;18.00;17.75;;;;;;;;5131908;27;10352;-81
2022/01/03 13:30:37;;;;;;;;;19.25;17.50;;;;;;;;5132184;27;10555;-80
2022/01/03 13:33:03;;;;;;;;;20.25;18.75;;;;;;;;5133450;27;11799;-80
2022/01/03 13:35:28;;;;;;;;;20.00;20.00;;;;;;;;5131807;27;13904;-79
2022/01/03 13:37:53;;;;;;;;;22.50;19.50;;;;;;;;5132270;27;12355;-80
2022/01/03 13:40:21;;;;;;;;;21.00;19.25;;;;;;;;5127866;27;13326;-79
2022/01/03 13:43:12;;;;;;;;;19.75;18.25;;;;;;;;5121801;27;11549;-77
2022/01/03 13:51:01;;;;;;;;;25.75;24.00;;;;;;;;5142771;27;13236;-75
2022/01/03 13:53:26;;;;;;;;;27.00;23.25;;;;;;;;5143109;27;13232;-81
2022/01/03 13:55:52;;;;;;;;;26.25;23.75;;;;;;;;5142729;27;11506;-82
2022/01/03 13:58:18;;;;;;;;;19.75;18.50;;;;;;;;5139880;27;10619;-78
2022/01/03 14:00:48;;;;;;;;;18.00;17.00;;;;;;;;5141128;27;13200;-76
2022/01/03 14:03:15;;;;;;;;;12.50;11.75;;;;;;;;5127920;27;11431;-76
2022/01/03 14:05:44;;;;;;;;;15.00;13.00;;;;;;;;5122597;27;11479;-76
2022/01/03 14:08:14;;;;;;;;;13.75;12.00;;;;;;;;5125525;27;11638;-75
2022/01/03 14:10:45;;;;;;;;;13.50;12.25;;;;;;;;5142496;27;11525;-75
2022/01/03 14:13:12;;;;;;;;;12.25;11.75;;;;;;;;5142181;27;11568;-80
2022/01/03 14:15:37;;;;;;;;;12.75;11.25;;;;;;;;5126909;27;11450;-77
2022/01/03 14:18:03;;;;;;;;;7.50;7.50;;;;;;;;5142530;27;11437;-81
2022/01/03 14:20:28;;;;;;;;;16.50;12.00;;;;;;;;5141465;27;23463;-81
2022/01/03 14:22:53;;;;;;;;;14.25;12.00;;;;;;;;5140201;27;22228;-80
2022/01/03 14:25:23;;;;;;;;;12.50;12.50;;;;;;;;5140457;27;9074;-81
2022/01/03 14:27:58;;;;;;;;;15.75;14.00;;;;;;;;5139799;27;11451;-79
2022/01/03 14:30:25;;;;;;;;;16.25;13.00;;;;;;;;5141949;27;11493;-79
2022/01/03 14:32:54;;;;;;;;;22.50;18.00;;;;;;;;5142275;27;11481;-79
2022/01/03 14:35:30;;;;;;;;;21.50;17.75;;;;;;;;5141885;27;13462;-81
2022/01/03 14:38:14;;;;;;;;;16.50;14.00;;;;;;;;5141794;27;11699;-78
2022/01/03 14:40:43;;;;;;;;;11.50;11.50;;;;;;;;5140737;27;13649;-78
2022/01/03 14:43:08;;;;;;;;;18.75;16.75;;;;;;;;5142460;27;11746;-78
2022/01/03 14:45:34;;;;;;;;;19.25;19.25;;;;;;;;5139540;27;11798;-79
2022/01/03 14:48:02;;;;;;;;;15.25;13.75;;;;;;;;5142149;27;10411;-80
2022/01/03 14:50:27;;;;;;;;;17.50;16.25;;;;;;;;5141858;27;10653;-75
2022/01/03 14:52:56;;;;;;;;;26.75;22.25;;;;;;;;5141427;27;11495;-76
2022/01/03 14:55:42;;;;;;;;;25.00;20.00;;;;;;;;5141449;27;12338;-75
2022/01/03 14:58:08;;;;;;;;;18.25;16.00;;;;;;;;5136828;27;12027;-75
2022/01/03 15:00:34;;;;;;;;;12.50;12.50;;;;;;;;5130440;27;12277;-74
2022/01/03 15:03:00;;;;;;;;;12.50;12.00;;;;;;;;5137536;27;11780;-75
2022/01/03 15:05:27;;;;;;;;;11.25;10.25;;;;;;;;5141389;27;11463;-74
2022/01/03 15:07:53;;;;;;;;;17.25;14.00;;;;;;;;5142129;27;11579;-74
2022/01/03 15:10:19;;;;;;;;;26.00;23.25;;;;;;;;5141713;27;11894;-74
2022/01/03 15:12:45;;;;;;;;;46.00;39.00;;;;;;;;5141631;27;13505;-74
2022/01/03 15:15:10;;;;;;;;;18.00;17.25;;;;;;;;5141585;27;13333;-74
2022/01/03 15:17:36;;;;;;;;;23.25;19.75;;;;;;;;5140745;27;13180;-80
2022/01/03 15:20:04;;;;;;;;;18.25;18.00;;;;;;;;5122548;27;12719;-76
2022/01/03 15:22:29;;;;;;;;;19.75;18.00;;;;;;;;5140171;27;13449;-75
2022/01/03 15:24:55;;;;;;;;;12.25;12.00;;;;;;;;5139337;27;12161;-79
2022/01/03 15:27:20;;;;;;;;;12.00;11.00;;;;;;;;5119937;27;9589;-80
2022/01/03 15:29:46;;;;;;;;;14.00;13.25;;;;;;;;5131066;27;11533;-76
2022/01/03 15:32:13;;;;;;;;;15.00;12.75;;;;;;;;5140471;27;11368;-76
2022/01/03 15:34:38;;;;;;;;;12.00;12.00;;;;;;;;5140689;27;11934;-77
2022/01/03 15:37:04;;;;;;;;;13.50;12.50;;;;;;;;5140989;27;11678;-79
2022/01/03 15:39:29;;;;;;;;;18.00;16.00;;;;;;;;5141126;27;11458;-76
2022/01/03 15:41:55;;;;;;;;;12.00;11.50;;;;;;;;5132474;27;11586;-78
2022/01/03 15:44:20;;;;;;;;;17.75;16.00;;;;;;;;5135239;27;11634;-77
2022/01/03 15:46:45;;;;;;;;;14.00;13.50;;;;;;;;5140981;27;11367;-80
2022/01/03 15:49:10;;;;;;;;;15.50;15.50;;;;;;;;5140520;27;11790;-80
2022/01/03 15:51:36;;;;;;;;;18.50;14.50;;;;;;;;5140351;27;10353;-78
2022/01/03 15:57:20;;;;;;;;;19.00;18.00;;;;;;;;5151147;27;1756052;-83
2022/01/03 15:59:46;;;;;;;;;19.00;15.50;;;;;;;;5180820;27;24776;-83
2022/01/03 16:02:11;;;;;;;;;14.00;12.50;;;;;;;;5199969;27;8898;-83
2022/01/03 16:04:37;;;;;;;;;15.50;13.50;;;;;;;;5198257;27;11696;-81
2022/01/03 16:07:02;;;;;;;;;18.25;15.75;;;;;;;;5198203;27;10315;-79
2022/01/03 16:09:29;;;;;;;;;15.50;13.75;;;;;;;;5179081;27;11928;-78
2022/01/03 16:11:54;;;;;;;;;17.75;17.75;;;;;;;;5197821;27;10664;-79
2022/01/03 16:14:19;;;;;;;;;18.75;15.00;;;;;;;;5197887;27;11522;-76
2022/01/03 16:16:45;;;;;;;;;20.75;17.00;;;;;;;;5197541;27;11382;-76
2022/01/03 16:19:12;;;;;;;;;20.75;19.25;;;;;;;;5136284;27;10860;-78
2022/01/03 16:21:37;;;;;;;;;22.00;18.00;;;;;;;;5175389;27;9475;-76
2022/01/03 16:24:02;;;;;;;;;19.25;16.25;;;;;;;;5175295;27;11643;-77
2022/01/03 16:26:30;;;;;;;;;23.00;20.00;;;;;;;;5175815;27;13677;-81
2022/01/03 16:29:06;;;;;;;;;21.25;20.50;;;;;;;;5176189;27;13999;-81
2022/01/03 16:31:31;;;;;;;;;27.25;25.25;;;;;;;;5175142;27;11633;-80
2022/01/03 16:33:56;;;;;;;;;33.75;30.75;;;;;;;;5176097;27;12550;-80
2022/01/03 16:36:22;;;;;;;;;28.00;28.00;;;;;;;;5176398;27;12431;-81
2022/01/03 16:38:47;;;;;;;;;28.25;26.00;;;;;;;;5175811;27;13259;-83
2022/01/03 16:41:13;;;;;;;;;26.75;24.25;;;;;;;;5176429;27;9541;-84
2022/01/03 16:43:38;;;;;;;;;22.50;19.25;;;;;;;;5175907;27;12291;-83
2022/01/03 16:46:06;;;;;;;;;21.75;20.75;;;;;;;;5176031;27;13004;-83
2022/01/03 16:48:32;;;;;;;;;19.75;17.50;;;;;;;;5176064;27;11701;-82